sensor_id;sensor_type;location;lat;lon;timestamp;pressure;altitude;pressure_sealevel;temperature;humidity
69855;BME280;57146;48.140;16.304;2023-02-04T00:00:19;99389.28;;;5.36;76.63
69855;BME280;57146;48.140;16.304;2023-02-04T00:02:48;99390.34;;;5.30;77.87
69855;BME280;57146;48.140;16.304;2023-02-04T00:05:16;99391.63;;;5.27;78.72
69855;BME280;57146;48.140;16.304;2023-02-04T00:07:44;99406.50;;;5.27;79.39
69855;BME280;57146;48.140;16.304;2023-02-04T00:10:13;99385.88;;;5.25;79.58
69855;BME280;57146;48.140;16.304;2023-02-04T00:12:39;99379.09;;;5.24;79.57
69855;BME280;57146;48.140;16.304;2023-02-04T00:15:07;99381.19;;;5.22;79.65
69855;BME280;57146;48.140;16.304;2023-02-04T00:17:35;99375.97;;;5.22;79.85
69855;BME280;57146;48.140;16.304;2023-02-04T00:20:02;99378.31;;;5.24;79.16
69855;BME280;57146;48.140;16.304;2023-02-04T00:22:29;99382.75;;;5.23;79.21
69855;BME280;57146;48.140;16.304;2023-02-04T00:24:57;99385.88;;;5.20;79.26
69855;BME280;57146;48.140;16.304;2023-02-04T00:27:25;99389.53;;;5.19;78.90
69855;BME280;57146;48.140;16.304;2023-02-04T00:29:53;99381.19;;;5.22;78.85
69855;BME280;57146;48.140;16.304;2023-02-04T00:32:22;99385.09;;;5.25;78.28
69855;BME280;57146;48.140;16.304;2023-02-04T00:34:49;99390.59;;;5.23;77.15
69855;BME280;57146;48.140;16.304;2023-02-04T00:37:16;99388.22;;;5.22;77.30
69855;BME280;57146;48.140;16.304;2023-02-04T00:39:44;99370.75;;;5.22;77.13
69855;BME280;57146;48.140;16.304;2023-02-04T00:42:10;99378.81;;;5.26;76.41
69855;BME280;57146;48.140;16.304;2023-02-04T00:44:38;99374.16;;;5.23;76.16
69855;BME280;57146;48.140;16.304;2023-02-04T00:47:05;99369.44;;;5.20;76.55
69855;BME280;57146;48.140;16.304;2023-02-04T00:49:33;99362.16;;;5.27;74.58
69855;BME280;57146;48.140;16.304;2023-02-04T00:52:00;99359.25;;;5.28;74.78
69855;BME280;57146;48.140;16.304;2023-02-04T00:54:32;99354.56;;;5.25;74.77
69855;BME280;57146;48.140;16.304;2023-02-04T00:57:00;99349.34;;;5.20;74.74
69855;BME280;57146;48.140;16.304;2023-02-04T00:59:27;99338.63;;;5.22;74.68
69855;BME280;57146;48.140;16.304;2023-02-04T01:01:55;99338.13;;;5.20;74.69
69855;BME280;57146;48.140;16.304;2023-02-04T01:04:23;99338.13;;;5.25;74.34
69855;BME280;57146;48.140;16.304;2023-02-04T01:06:50;99324.03;;;5.26;73.77
69855;BME280;57146;48.140;16.304;2023-02-04T01:09:21;99321.16;;;5.27;73.62
69855;BME280;57146;48.140;16.304;2023-02-04T01:11:48;99322.19;;;5.37;72.59
69855;BME280;57146;48.140;16.304;2023-02-04T01:14:15;99321.66;;;5.29;73.42
69855;BME280;57146;48.140;16.304;2023-02-04T01:16:42;99315.69;;;5.34;72.59
69855;BME280;57146;48.140;16.304;2023-02-04T01:19:11;99313.06;;;5.34;72.32
69855;BME280;57146;48.140;16.304;2023-02-04T01:21:39;99302.34;;;5.41;71.67
69855;BME280;57146;48.140;16.304;2023-02-04T01:24:32;99302.59;;;5.39;71.99
69855;BME280;57146;48.140;16.304;2023-02-04T01:27:20;99299.50;;;5.37;72.66
69855;BME280;57146;48.140;16.304;2023-02-04T01:29:47;99302.63;;;5.34;73.16
69855;BME280;57146;48.140;16.304;2023-02-04T01:32:16;99308.09;;;5.33;73.37
69855;BME280;57146;48.140;16.304;2023-02-04T01:34:43;99291.94;;;5.31;73.25
69855;BME280;57146;48.140;16.304;2023-02-04T01:37:10;99304.19;;;5.30;73.51
69855;BME280;57146;48.140;16.304;2023-02-04T01:39:37;99315.16;;;5.27;73.53
69855;BME280;57146;48.140;16.304;2023-02-04T01:42:05;99296.13;;;5.26;73.89
69855;BME280;57146;48.140;16.304;2023-02-04T01:44:32;99308.34;;;5.26;73.65
69855;BME280;57146;48.140;16.304;2023-02-04T01:46:59;99316.19;;;5.26;74.23
69855;BME280;57146;48.140;16.304;2023-02-04T01:49:26;99303.66;;;5.28;73.16
69855;BME280;57146;48.140;16.304;2023-02-04T01:51:54;99311.50;;;5.28;73.44
69855;BME280;57146;48.140;16.304;2023-02-04T01:54:25;99311.78;;;5.26;73.49
69855;BME280;57146;48.140;16.304;2023-02-04T01:56:52;99297.13;;;5.25;73.93
69855;BME280;57146;48.140;16.304;2023-02-04T01:59:19;99305.75;;;5.26;73.38
69855;BME280;57146;48.140;16.304;2023-02-04T02:01:52;99313.84;;;5.14;74.25
69855;BME280;57146;48.140;16.304;2023-02-04T02:04:38;99307.06;;;5.18;73.19
69855;BME280;57146;48.140;16.304;2023-02-04T02:07:31;99299.25;;;5.23;72.46
69855;BME280;57146;48.140;16.304;2023-02-04T02:10:01;99302.09;;;5.22;73.03
69855;BME280;57146;48.140;16.304;2023-02-04T02:12:28;99292.72;;;5.21;73.33
69855;BME280;57146;48.140;16.304;2023-02-04T02:14:56;99303.16;;;5.31;72.18
69855;BME280;57146;48.140;16.304;2023-02-04T02:17:24;99308.63;;;5.29;72.88
69855;BME280;57146;48.140;16.304;2023-02-04T02:19:53;99321.94;;;5.28;72.97
69855;BME280;57146;48.140;16.304;2023-02-04T02:22:22;99291.66;;;5.27;73.35
69855;BME280;57146;48.140;16.304;2023-02-04T02:24:51;99315.16;;;5.32;72.46
69855;BME280;57146;48.140;16.304;2023-02-04T02:27:19;99304.44;;;5.28;73.34
69855;BME280;57146;48.140;16.304;2023-02-04T02:29:46;99294.78;;;5.19;74.69
69855;BME280;57146;48.140;16.304;2023-02-04T02:32:13;99319.88;;;5.20;74.01
69855;BME280;57146;48.140;16.304;2023-02-04T02:34:45;99319.59;;;5.21;74.01
69855;BME280;57146;48.140;16.304;2023-02-04T02:37:36;99305.00;;;5.20;74.75
69855;BME280;57146;48.140;16.304;2023-02-04T02:40:05;99305.78;;;5.21;74.24
69855;BME280;57146;48.140;16.304;2023-02-04T02:42:35;99312.56;;;5.27;72.83
69855;BME280;57146;48.140;16.304;2023-02-04T02:45:07;99298.69;;;5.37;71.42
69855;BME280;57146;48.140;16.304;2023-02-04T02:47:37;99307.84;;;5.34;72.06
69855;BME280;57146;48.140;16.304;2023-02-04T02:50:12;99294.25;;;5.32;72.36
69855;BME280;57146;48.140;16.304;2023-02-04T02:52:41;99318.53;;;5.33;72.52
69855;BME280;57146;48.140;16.304;2023-02-04T02:55:16;99305.75;;;5.26;73.43
69855;BME280;57146;48.140;16.304;2023-02-04T02:57:45;99313.06;;;5.29;72.99
69855;BME280;57146;48.140;16.304;2023-02-04T03:00:16;99325.84;;;5.25;73.66
69855;BME280;57146;48.140;16.304;2023-02-04T03:02:45;99321.16;;;5.22;74.08
69855;BME280;57146;48.140;16.304;2023-02-04T03:05:18;99312.03;;;5.20;73.64
69855;BME280;57146;48.140;16.304;2023-02-04T03:07:45;99315.94;;;5.22;73.89
69855;BME280;57146;48.140;16.304;2023-02-04T03:10:16;99313.59;;;5.21;72.77
69855;BME280;57146;48.140;16.304;2023-02-04T03:12:45;99295.31;;;5.21;72.34
69855;BME280;57146;48.140;16.304;2023-02-04T03:15:13;99307.59;;;5.20;72.91
69855;BME280;57146;48.140;16.304;2023-02-04T03:17:45;99330.03;;;5.26;71.50
69855;BME280;57146;48.140;16.304;2023-02-04T03:20:15;99309.69;;;5.23;71.22
69855;BME280;57146;48.140;16.304;2023-02-04T03:22:42;99324.56;;;5.23;72.55
69855;BME280;57146;48.140;16.304;2023-02-04T03:25:09;99330.28;;;5.35;69.76
69855;BME280;57146;48.140;16.304;2023-02-04T03:27:37;99312.25;;;5.44;69.77
69855;BME280;57146;48.140;16.304;2023-02-04T03:30:05;99316.19;;;5.41;70.72
69855;BME280;57146;48.140;16.304;2023-02-04T03:32:57;99309.88;;;5.52;69.41
69855;BME280;57146;48.140;16.304;2023-02-04T03:35:24;99300.00;;;5.44;69.63
69855;BME280;57146;48.140;16.304;2023-02-04T03:37:52;99306.25;;;5.43;70.13
69855;BME280;57146;48.140;16.304;2023-02-04T03:40:20;99296.59;;;5.39;70.90
69855;BME280;57146;48.140;16.304;2023-02-04T03:42:47;99289.81;;;5.38;70.98
69855;BME280;57146;48.140;16.304;2023-02-04T03:45:16;99292.16;;;5.39;69.97
69855;BME280;57146;48.140;16.304;2023-02-04T03:47:42;99287.19;;;5.43;69.91
69855;BME280;57146;48.140;16.304;2023-02-04T03:50:12;99327.94;;;5.39;70.19
69855;BME280;57146;48.140;16.304;2023-02-04T03:52:39;99310.16;;;5.46;69.60
69855;BME280;57146;48.140;16.304;2023-02-04T03:55:06;99333.38;;;5.47;69.48
69855;BME280;57146;48.140;16.304;2023-02-04T03:57:33;99318.28;;;5.44;69.67
69855;BME280;57146;48.140;16.304;2023-02-04T04:00:02;99338.88;;;5.46;69.79
69855;BME280;57146;48.140;16.304;2023-02-04T04:02:37;99339.91;;;5.50;70.06
69855;BME280;57146;48.140;16.304;2023-02-04T04:05:06;99349.84;;;5.43;70.48
69855;BME280;57146;48.140;16.304;2023-02-04T04:07:33;99336.28;;;5.41;71.45
69855;BME280;57146;48.140;16.304;2023-02-04T04:10:02;99332.38;;;5.38;71.93
69855;BME280;57146;48.140;16.304;2023-02-04T04:12:30;99339.16;;;5.34;71.43
69855;BME280;57146;48.140;16.304;2023-02-04T04:14:57;99330.81;;;5.32;71.05
69855;BME280;57146;48.140;16.304;2023-02-04T04:17:24;99343.63;;;5.34;71.11
69855;BME280;57146;48.140;16.304;2023-02-04T04:20:15;99358.75;;;5.26;72.26
69855;BME280;57146;48.140;16.304;2023-02-04T04:22:42;99383.78;;;5.12;75.57
69855;BME280;57146;48.140;16.304;2023-02-04T04:25:10;99415.19;;;4.44;83.92
69855;BME280;57146;48.140;16.304;2023-02-04T04:27:37;99411.59;;;3.98;87.45
69855;BME280;57146;48.140;16.304;2023-02-04T04:30:04;99444.53;;;3.77;88.35
69855;BME280;57146;48.140;16.304;2023-02-04T04:32:32;99460.75;;;3.52;87.70
69855;BME280;57146;48.140;16.304;2023-02-04T04:34:59;99444.41;;;3.56;88.30
69855;BME280;57146;48.140;16.304;2023-02-04T04:37:26;99468.91;;;3.60;89.31
69855;BME280;57146;48.140;16.304;2023-02-04T04:39:53;99488.16;;;3.59;89.79
69855;BME280;57146;48.140;16.304;2023-02-04T04:42:20;99481.66;;;3.62;88.13
69855;BME280;57146;48.140;16.304;2023-02-04T04:44:47;99478.56;;;3.65;86.61
69855;BME280;57146;48.140;16.304;2023-02-04T04:47:14;99520.22;;;3.65;86.00
69855;BME280;57146;48.140;16.304;2023-02-04T04:49:42;99539.00;;;3.67;85.52
69855;BME280;57146;48.140;16.304;2023-02-04T04:52:09;99552.97;;;3.56;86.67
69855;BME280;57146;48.140;16.304;2023-02-04T04:54:37;99580.94;;;3.44;86.50
69855;BME280;57146;48.140;16.304;2023-02-04T04:57:07;99567.63;;;3.40;82.20
69855;BME280;57146;48.140;16.304;2023-02-04T04:59:34;99595.84;;;3.26;83.41
69855;BME280;57146;48.140;16.304;2023-02-04T05:02:02;99606.50;;;3.25;83.95
69855;BME280;57146;48.140;16.304;2023-02-04T05:04:29;99615.03;;;3.20;83.34
69855;BME280;57146;48.140;16.304;2023-02-04T05:06:57;99630.94;;;3.24;80.61
69855;BME280;57146;48.140;16.304;2023-02-04T05:09:24;99625.97;;;3.22;80.48
69855;BME280;57146;48.140;16.304;2023-02-04T05:11:54;99643.44;;;3.27;79.67
69855;BME280;57146;48.140;16.304;2023-02-04T05:14:21;99630.44;;;3.27;76.40
69855;BME280;57146;48.140;16.304;2023-02-04T05:16:48;99657.19;;;3.22;75.43
69855;BME280;57146;48.140;16.304;2023-02-04T05:19:15;99674.31;;;3.18;74.97
69855;BME280;57146;48.140;16.304;2023-02-04T05:21:43;99660.75;;;3.16;72.56
69855;BME280;57146;48.140;16.304;2023-02-04T05:24:10;99668.31;;;3.18;72.95
69855;BME280;57146;48.140;16.304;2023-02-04T05:26:38;99668.72;;;3.09;70.78
69855;BME280;57146;48.140;16.304;2023-02-04T05:29:07;99690.03;;;3.06;71.71
69855;BME280;57146;48.140;16.304;2023-02-04T05:31:36;99715.22;;;3.06;72.54
69855;BME280;57146;48.140;16.304;2023-02-04T05:34:05;99713.44;;;3.06;71.21
69855;BME280;57146;48.140;16.304;2023-02-04T05:36:32;99705.81;;;3.00;71.04
69855;BME280;57146;48.140;16.304;2023-02-04T05:38:59;99726.91;;;3.03;71.14
69855;BME280;57146;48.140;16.304;2023-02-04T05:41:26;99742.75;;;3.02;69.83
69855;BME280;57146;48.140;16.304;2023-02-04T05:43:53;99731.25;;;2.98;69.82
69855;BME280;57146;48.140;16.304;2023-02-04T05:46:20;99736.69;;;2.96;68.75
69855;BME280;57146;48.140;16.304;2023-02-04T05:48:48;99751.53;;;2.96;68.09
69855;BME280;57146;48.140;16.304;2023-02-04T05:51:15;99754.66;;;2.98;66.78
69855;BME280;57146;48.140;16.304;2023-02-04T05:54:08;99769.16;;;2.94;66.24
69855;BME280;57146;48.140;16.304;2023-02-04T05:56:35;99770.19;;;2.93;66.12
69855;BME280;57146;48.140;16.304;2023-02-04T05:59:02;99768.84;;;2.90;66.97
69855;BME280;57146;48.140;16.304;2023-02-04T06:01:29;99768.59;;;2.92;66.35
69855;BME280;57146;48.140;16.304;2023-02-04T06:03:56;99768.06;;;2.90;65.37
69855;BME280;57146;48.140;16.304;2023-02-04T06:06:24;99781.59;;;2.92;64.55
69855;BME280;57146;48.140;16.304;2023-02-04T06:08:55;99780.34;;;2.94;65.24
69855;BME280;57146;48.140;16.304;2023-02-04T06:11:22;99807.59;;;2.92;65.23
69855;BME280;57146;48.140;16.304;2023-02-04T06:13:49;99787.94;;;2.96;64.38
69855;BME280;57146;48.140;16.304;2023-02-04T06:16:16;99811.56;;;2.94;64.00
69855;BME280;57146;48.140;16.304;2023-02-04T06:18:44;99828.19;;;2.93;64.24
69855;BME280;57146;48.140;16.304;2023-02-04T06:21:12;99846.06;;;2.90;64.36
69855;BME280;57146;48.140;16.304;2023-02-04T06:23:39;99866.88;;;2.90;64.19
69855;BME280;57146;48.140;16.304;2023-02-04T06:26:07;99857.25;;;2.90;63.67
69855;BME280;57146;48.140;16.304;2023-02-04T06:28:59;99887.13;;;2.87;64.42
69855;BME280;57146;48.140;16.304;2023-02-04T06:31:52;99889.84;;;2.81;65.08
69855;BME280;57146;48.140;16.304;2023-02-04T06:34:19;99905.94;;;2.78;65.51
69855;BME280;57146;48.140;16.304;2023-02-04T06:36:46;99913.50;;;2.79;64.72
69855;BME280;57146;48.140;16.304;2023-02-04T06:39:13;99919.94;;;2.77;64.57
69855;BME280;57146;48.140;16.304;2023-02-04T06:41:42;99927.53;;;2.78;64.16
69855;BME280;57146;48.140;16.304;2023-02-04T06:44:09;99932.16;;;2.76;65.04
69855;BME280;57146;48.140;16.304;2023-02-04T06:46:36;99946.13;;;2.87;64.36
69855;BME280;57146;48.140;16.304;2023-02-04T06:49:03;99967.31;;;2.79;64.75
69855;BME280;57146;48.140;16.304;2023-02-04T06:51:31;99961.00;;;2.75;64.91
69855;BME280;57146;48.140;16.304;2023-02-04T06:53:59;99964.84;;;2.72;65.23
69855;BME280;57146;48.140;16.304;2023-02-04T06:56:27;99984.06;;;2.71;65.31
69855;BME280;57146;48.140;16.304;2023-02-04T06:58:55;99992.53;;;2.67;65.59
69855;BME280;57146;48.140;16.304;2023-02-04T07:01:28;100006.81;;;2.64;65.78
69855;BME280;57146;48.140;16.304;2023-02-04T07:03:55;100006.22;;;2.62;64.52
69855;BME280;57146;48.140;16.304;2023-02-04T07:06:22;100025.44;;;2.61;64.75
69855;BME280;57146;48.140;16.304;2023-02-04T07:08:50;100028.94;;;2.55;65.61
69855;BME280;57146;48.140;16.304;2023-02-04T07:11:17;100053.81;;;2.51;65.94
69855;BME280;57146;48.140;16.304;2023-02-04T07:13:45;100055.19;;;2.53;66.08
69855;BME280;57146;48.140;16.304;2023-02-04T07:16:12;100075.31;;;2.46;65.81
69855;BME280;57146;48.140;16.304;2023-02-04T07:18:41;100080.50;;;2.46;65.62
69855;BME280;57146;48.140;16.304;2023-02-04T07:21:09;100095.63;;;2.37;65.72
69855;BME280;57146;48.140;16.304;2023-02-04T07:24:03;100097.44;;;2.37;65.50
69855;BME280;57146;48.140;16.304;2023-02-04T07:26:30;100103.66;;;2.36;65.10
69855;BME280;57146;48.140;16.304;2023-02-04T07:28:58;100117.66;;;2.35;64.59
69855;BME280;57146;48.140;16.304;2023-02-04T07:31:26;100140.91;;;2.30;64.77
69855;BME280;57146;48.140;16.304;2023-02-04T07:33:53;100156.16;;;2.26;64.63
69855;BME280;57146;48.140;16.304;2023-02-04T07:36:20;100176.59;;;2.23;63.68
69855;BME280;57146;48.140;16.304;2023-02-04T07:38:48;100166.88;;;2.18;63.82
69855;BME280;57146;48.140;16.304;2023-02-04T07:41:16;100187.50;;;2.13;63.97
69855;BME280;57146;48.140;16.304;2023-02-04T07:43:43;100213.47;;;2.13;62.48
69855;BME280;57146;48.140;16.304;2023-02-04T07:46:12;100223.19;;;2.36;60.96
69855;BME280;57146;48.140;16.304;2023-02-04T07:48:39;100221.09;;;2.26;60.84
69855;BME280;57146;48.140;16.304;2023-02-04T07:51:05;100251.03;;;2.17;61.80
69855;BME280;57146;48.140;16.304;2023-02-04T07:53:56;100244.53;;;2.08;62.09
69855;BME280;57146;48.140;16.304;2023-02-04T07:56:24;100254.41;;;1.99;63.56
69855;BME280;57146;48.140;16.304;2023-02-04T07:58:51;100257.59;;;2.01;64.14
69855;BME280;57146;48.140;16.304;2023-02-04T08:01:18;100275.06;;;1.94;64.41
69855;BME280;57146;48.140;16.304;2023-02-04T08:03:47;100269.28;;;1.92;64.80
69855;BME280;57146;48.140;16.304;2023-02-04T08:06:14;100291.50;;;1.88;65.15
69855;BME280;57146;48.140;16.304;2023-02-04T08:08:41;100312.16;;;1.83;65.05
69855;BME280;57146;48.140;16.304;2023-02-04T08:11:08;100321.88;;;1.87;64.97
69855;BME280;57146;48.140;16.304;2023-02-04T08:13:35;100333.94;;;1.82;64.36
69855;BME280;57146;48.140;16.304;2023-02-04T08:16:04;100344.56;;;1.74;64.13
69855;BME280;57146;48.140;16.304;2023-02-04T08:18:31;100349.63;;;1.68;62.87
69855;BME280;57146;48.140;16.304;2023-02-04T08:21:23;100344.06;;;1.65;62.90
69855;BME280;57146;48.140;16.304;2023-02-04T08:23:55;100358.63;;;1.66;63.05
69855;BME280;57146;48.140;16.304;2023-02-04T08:26:22;100359.41;;;1.66;60.87
69855;BME280;57146;48.140;16.304;2023-02-04T08:29:13;100361.22;;;1.66;60.95
69855;BME280;57146;48.140;16.304;2023-02-04T08:31:40;100370.81;;;1.65;61.26
69855;BME280;57146;48.140;16.304;2023-02-04T08:34:08;100376.00;;;1.65;60.11
69855;BME280;57146;48.140;16.304;2023-02-04T08:36:35;100394.41;;;1.64;60.32
69855;BME280;57146;48.140;16.304;2023-02-04T08:39:03;100385.97;;;1.68;59.33
69855;BME280;57146;48.140;16.304;2023-02-04T08:41:30;100404.13;;;1.68;59.42
69855;BME280;57146;48.140;16.304;2023-02-04T08:43:57;100410.34;;;1.67;59.13
69855;BME280;57146;48.140;16.304;2023-02-04T08:46:24;100402.72;;;1.73;59.04
69855;BME280;57146;48.140;16.304;2023-02-04T08:48:51;100398.66;;;1.77;58.40
69855;BME280;57146;48.140;16.304;2023-02-04T08:51:20;100429.19;;;1.81;58.30
69855;BME280;57146;48.140;16.304;2023-02-04T08:53:47;100442.00;;;1.76;59.12
69855;BME280;57146;48.140;16.304;2023-02-04T08:56:14;100421.38;;;1.81;58.68
69855;BME280;57146;48.140;16.304;2023-02-04T08:58:43;100434.31;;;1.88;58.54
69855;BME280;57146;48.140;16.304;2023-02-04T09:01:11;100438.88;;;1.92;58.64
69855;BME280;57146;48.140;16.304;2023-02-04T09:03:38;100439.25;;;1.96;58.39
69855;BME280;57146;48.140;16.304;2023-02-04T09:06:06;100440.41;;;2.00;58.58
69855;BME280;57146;48.140;16.304;2023-02-04T09:08:33;100438.97;;;2.04;58.73
69855;BME280;57146;48.140;16.304;2023-02-04T09:11:02;100459.25;;;2.14;59.76
69855;BME280;57146;48.140;16.304;2023-02-04T09:13:31;100461.34;;;2.24;60.33
69855;BME280;57146;48.140;16.304;2023-02-04T09:15:58;100460.84;;;2.15;60.84
69855;BME280;57146;48.140;16.304;2023-02-04T09:18:25;100482.34;;;2.04;62.53
69855;BME280;57146;48.140;16.304;2023-02-04T09:20:52;100497.25;;;2.33;66.51
69855;BME280;57146;48.140;16.304;2023-02-04T09:23:19;100490.34;;;2.46;67.01
69855;BME280;57146;48.140;16.304;2023-02-04T09:25:46;100496.13;;;2.23;63.00
69855;BME280;57146;48.140;16.304;2023-02-04T09:28:15;100517.25;;;2.08;62.40
69855;BME280;57146;48.140;16.304;2023-02-04T09:30:44;100521.94;;;2.24;61.84
69855;BME280;57146;48.140;16.304;2023-02-04T09:33:15;100520.69;;;2.02;63.18
69855;BME280;57146;48.140;16.304;2023-02-04T09:35:43;100526.00;;;1.88;62.80
69855;BME280;57146;48.140;16.304;2023-02-04T09:38:11;100528.91;;;1.74;62.03
69855;BME280;57146;48.140;16.304;2023-02-04T09:40:42;100556.50;;;1.68;62.09
69855;BME280;57146;48.140;16.304;2023-02-04T09:43:17;100559.88;;;1.68;61.96
69855;BME280;57146;48.140;16.304;2023-02-04T09:45:47;100584.25;;;1.67;62.07
69855;BME280;57146;48.140;16.304;2023-02-04T09:48:14;100569.28;;;1.63;62.42
69855;BME280;57146;48.140;16.304;2023-02-04T09:50:41;100579.06;;;1.67;62.45
69855;BME280;57146;48.140;16.304;2023-02-04T09:53:12;100588.06;;;1.65;62.34
69855;BME280;57146;48.140;16.304;2023-02-04T09:55:44;100596.78;;;1.77;63.29
69855;BME280;57146;48.140;16.304;2023-02-04T09:58:17;100589.78;;;1.78;61.38
69855;BME280;57146;48.140;16.304;2023-02-04T10:00:47;100602.38;;;1.74;61.24
69855;BME280;57146;48.140;16.304;2023-02-04T10:03:18;100598.41;;;1.72;59.83
69855;BME280;57146;48.140;16.304;2023-02-04T10:05:46;100607.25;;;1.64;58.90
69855;BME280;57146;48.140;16.304;2023-02-04T10:08:22;100616.66;;;1.58;60.41
69855;BME280;57146;48.140;16.304;2023-02-04T10:10:52;100625.03;;;1.60;59.54
69855;BME280;57146;48.140;16.304;2023-02-04T10:13:25;100628.44;;;1.61;59.41
69855;BME280;57146;48.140;16.304;2023-02-04T10:15:54;100624.22;;;1.60;58.54
69855;BME280;57146;48.140;16.304;2023-02-04T10:18:27;100651.19;;;1.59;56.84
69855;BME280;57146;48.140;16.304;2023-02-04T10:21:02;100657.78;;;1.55;56.08
69855;BME280;57146;48.140;16.304;2023-02-04T10:23:34;100673.59;;;1.53;55.69
69855;BME280;57146;48.140;16.304;2023-02-04T10:26:02;100664.97;;;1.53;53.76
69855;BME280;57146;48.140;16.304;2023-02-04T10:28:36;100675.97;;;1.48;54.54
69855;BME280;57146;48.140;16.304;2023-02-04T10:31:05;100660.78;;;1.52;54.56
69855;BME280;57146;48.140;16.304;2023-02-04T10:33:33;100672.72;;;1.59;55.27
69855;BME280;57146;48.140;16.304;2023-02-04T10:36:00;100663.13;;;1.66;54.14
69855;BME280;57146;48.140;16.304;2023-02-04T10:38:31;100664.28;;;1.71;54.64
69855;BME280;57146;48.140;16.304;2023-02-04T10:41:02;100672.28;;;1.76;55.67
69855;BME280;57146;48.140;16.304;2023-02-04T10:43:31;100676.06;;;1.80;54.88
69855;BME280;57146;48.140;16.304;2023-02-04T10:46:00;100666.22;;;1.88;55.84
69855;BME280;57146;48.140;16.304;2023-02-04T10:48:38;100656.59;;;1.96;55.77
69855;BME280;57146;48.140;16.304;2023-02-04T10:51:10;100668.41;;;1.91;55.14
69855;BME280;57146;48.140;16.304;2023-02-04T10:53:38;100664.81;;;1.92;56.21
69855;BME280;57146;48.140;16.304;2023-02-04T10:56:15;100647.59;;;1.98;55.69
69855;BME280;57146;48.140;16.304;2023-02-04T10:58:43;100659.75;;;2.04;55.59
69855;BME280;57146;48.140;16.304;2023-02-04T11:01:12;100674.69;;;2.09;58.10
69855;BME280;57146;48.140;16.304;2023-02-04T11:04:09;100684.31;;;2.02;60.58
69855;BME280;57146;48.140;16.304;2023-02-04T11:06:38;100689.78;;;1.87;61.65
69855;BME280;57146;48.140;16.304;2023-02-04T11:09:06;100706.06;;;1.62;68.68
69855;BME280;57146;48.140;16.304;2023-02-04T11:11:33;100699.94;;;1.50;68.98
69855;BME280;57146;48.140;16.304;2023-02-04T11:14:01;100702.53;;;1.43;68.05
69855;BME280;57146;48.140;16.304;2023-02-04T11:16:31;100702.56;;;1.37;67.75
69855;BME280;57146;48.140;16.304;2023-02-04T11:19:04;100698.38;;;1.42;67.15
69855;BME280;57146;48.140;16.304;2023-02-04T11:24:32;100712.66;;;1.65;64.25
69855;BME280;57146;48.140;16.304;2023-02-04T11:27:24;100716.19;;;1.77;63.06
69855;BME280;57146;48.140;16.304;2023-02-04T11:30:21;100695.59;;;1.89;61.92
69855;BME280;57146;48.140;16.304;2023-02-04T11:33:23;100696.75;;;2.00;61.10
69855;BME280;57146;48.140;16.304;2023-02-04T11:36:00;100705.28;;;2.07;57.92
69855;BME280;57146;48.140;16.304;2023-02-04T11:38:30;100694.38;;;2.23;61.10
69855;BME280;57146;48.140;16.304;2023-02-04T11:40:58;100702.00;;;2.25;59.95
69855;BME280;57146;48.140;16.304;2023-02-04T11:43:32;100698.72;;;2.36;59.46
69855;BME280;57146;48.140;16.304;2023-02-04T11:46:11;100708.34;;;2.29;58.24
69855;BME280;57146;48.140;16.304;2023-02-04T11:48:40;100710.47;;;2.13;58.10
69855;BME280;57146;48.140;16.304;2023-02-04T11:51:11;100722.66;;;2.06;58.05
69855;BME280;57146;48.140;16.304;2023-02-04T11:53:42;100729.69;;;1.99;57.84
69855;BME280;57146;48.140;16.304;2023-02-04T11:56:16;100729.75;;;1.92;57.56
69855;BME280;57146;48.140;16.304;2023-02-04T11:58:43;100726.91;;;1.94;57.00
69855;BME280;57146;48.140;16.304;2023-02-04T12:01:22;100745.69;;;1.96;55.23
69855;BME280;57146;48.140;16.304;2023-02-04T12:03:56;100732.50;;;1.98;56.47
69855;BME280;57146;48.140;16.304;2023-02-04T12:06:26;100750.44;;;2.06;55.09
69855;BME280;57146;48.140;16.304;2023-02-04T12:12:00;100742.44;;;2.07;53.30
69855;BME280;57146;48.140;16.304;2023-02-04T12:14:36;100749.84;;;2.04;53.93
69855;BME280;57146;48.140;16.304;2023-02-04T12:17:19;100756.09;;;1.96;52.39
69855;BME280;57146;48.140;16.304;2023-02-04T12:20:12;100747.09;;;1.92;52.72
69855;BME280;57146;48.140;16.304;2023-02-04T12:22:39;100743.13;;;1.89;53.13
69855;BME280;57146;48.140;16.304;2023-02-04T12:25:06;100746.69;;;1.95;52.59
69855;BME280;57146;48.140;16.304;2023-02-04T12:27:34;100744.47;;;1.99;53.10
69855;BME280;57146;48.140;16.304;2023-02-04T12:30:26;100753.50;;;1.96;52.67
69855;BME280;57146;48.140;16.304;2023-02-04T12:32:53;100731.28;;;2.07;52.77
69855;BME280;57146;48.140;16.304;2023-02-04T12:35:22;100744.22;;;2.13;53.07
69855;BME280;57146;48.140;16.304;2023-02-04T12:37:48;100732.06;;;2.07;51.90
69855;BME280;57146;48.140;16.304;2023-02-04T12:40:39;100730.84;;;2.10;52.05
69855;BME280;57146;48.140;16.304;2023-02-04T12:43:07;100730.16;;;2.28;51.94
69855;BME280;57146;48.140;16.304;2023-02-04T12:45:35;100743.09;;;2.34;52.03
69855;BME280;57146;48.140;16.304;2023-02-04T12:48:08;100745.31;;;2.31;52.77
69855;BME280;57146;48.140;16.304;2023-02-04T12:50:35;100745.19;;;2.19;52.96
69855;BME280;57146;48.140;16.304;2023-02-04T12:53:02;100744.22;;;2.13;51.56
69855;BME280;57146;48.140;16.304;2023-02-04T12:55:35;100759.66;;;1.95;51.69
69855;BME280;57146;48.140;16.304;2023-02-04T12:58:03;100769.28;;;1.88;51.90
69855;BME280;57146;48.140;16.304;2023-02-04T13:00:33;100755.53;;;1.74;50.86
69855;BME280;57146;48.140;16.304;2023-02-04T13:03:25;100774.94;;;1.72;50.90
69855;BME280;57146;48.140;16.304;2023-02-04T13:05:52;100773.31;;;1.71;51.53
69855;BME280;57146;48.140;16.304;2023-02-04T13:08:20;100780.53;;;1.68;51.83
69855;BME280;57146;48.140;16.304;2023-02-04T13:10:50;100775.75;;;1.72;52.29
69855;BME280;57146;48.140;16.304;2023-02-04T13:13:21;100785.72;;;1.75;52.03
69855;BME280;57146;48.140;16.304;2023-02-04T13:15:50;100780.13;;;1.78;52.33